Time;durP1;ratioP1;P1;durP2;ratioP2;P2;SDS_P1;SDS_P2;PMS_P1;PMS_P2;Temp;Humidity;BMP_temperature;BMP_pressure;BME280_temperature;BME280_humidity;BME280_pressure;Samples;Min_cycle;Max_cycle;Signal;HPM_P1;HPM_P2
2022/09/16 00:00:16;;;;;;;9.02;6.20;;;14.80;99.90;;;13.91;100.00;96814.97;5092177;28;20394;-74
2022/09/16 00:02:42;;;;;;;8.27;5.93;;;14.80;99.90;;;13.98;100.00;96811.19;5091771;28;20414;-74
2022/09/16 00:05:08;;;;;;;9.73;5.80;;;14.80;99.90;;;13.92;100.00;96811.22;5092001;28;20394;-74
2022/09/16 00:07:34;;;;;;;8.80;5.40;;;14.80;99.90;;;13.89;100.00;96806.50;5092129;28;20459;-74
2022/09/16 00:10:03;;;;;;;11.00;6.40;;;14.80;99.90;;;13.89;100.00;96808.34;5091867;28;20767;-74
2022/09/16 00:12:29;;;;;;;9.20;5.82;;;14.80;99.90;;;13.88;100.00;96804.13;5091924;28;20425;-74
2022/09/16 00:14:55;;;;;;;8.50;6.07;;;14.70;99.90;;;13.86;100.00;96804.41;5090404;28;20917;-74
2022/09/16 00:17:21;;;;;;;13.20;6.03;;;14.70;99.90;;;13.88;100.00;96802.25;5091859;28;20768;-74
2022/09/16 00:19:49;;;;;;;8.55;6.10;;;14.80;99.90;;;13.86;100.00;96806.25;5091875;28;20398;-74
2022/09/16 00:22:15;;;;;;;9.48;6.07;;;14.70;99.90;;;13.85;100.00;96799.34;5080122;28;20404;-74
2022/09/16 00:24:41;;;;;;;8.23;5.75;;;14.70;99.90;;;13.82;100.00;96805.25;5090934;28;20399;-74
2022/09/16 00:27:09;;;;;;;9.30;5.72;;;14.70;99.90;;;13.82;100.00;96805.25;5091690;28;20463;-74
2022/09/16 00:29:35;;;;;;;8.57;5.95;;;14.70;99.90;;;13.83;100.00;96804.94;5091753;28;20394;-74
2022/09/16 00:32:01;;;;;;;10.93;5.73;;;14.70;99.90;;;13.82;100.00;96800.72;5091570;28;20756;-74
2022/09/16 00:34:27;;;;;;;6.90;5.22;;;14.70;99.90;;;13.81;100.00;96804.47;5091091;28;20402;-74
2022/09/16 00:36:53;;;;;;;9.32;6.07;;;14.70;99.90;;;13.80;100.00;96812.72;5091576;28;20763;-74
2022/09/16 00:39:19;;;;;;;9.05;6.30;;;14.70;99.90;;;13.77;100.00;96811.41;5091426;28;20887;-74
2022/09/16 00:41:45;;;;;;;7.90;6.07;;;14.70;99.90;;;13.79;100.00;96811.94;5091389;28;20417;-74
2022/09/16 00:44:53;;;;;;;7.27;6.00;;;14.60;99.90;;;13.76;100.00;96803.72;5090954;28;20424;-74
2022/09/16 00:47:24;;;;;;;9.90;6.32;;;14.60;99.90;;;13.73;100.00;96812.28;5091327;28;20488;-74
2022/09/16 00:49:53;;;;;;;12.02;5.90;;;14.60;99.90;;;13.71;100.00;96803.78;5091288;28;20426;-74
2022/09/16 00:52:19;;;;;;;10.25;6.40;;;14.60;99.90;;;13.68;100.00;96817.69;5091245;28;20402;-74
2022/09/16 00:54:46;;;;;;;9.52;6.47;;;14.60;99.90;;;13.65;100.00;96812.91;5090863;28;20406;-74
2022/09/16 00:57:13;;;;;;;8.75;6.25;;;14.60;99.90;;;13.64;100.00;96824.63;5091085;28;20398;-74
2022/09/16 00:59:44;;;;;;;8.20;6.47;;;14.50;99.90;;;13.65;100.00;96820.88;5091162;28;20449;-74
2022/09/16 01:02:15;;;;;;;10.05;6.72;;;14.50;99.90;;;13.65;100.00;96818.22;5090206;28;20405;-74
2022/09/16 01:04:47;;;;;;;9.50;7.05;;;14.50;99.90;;;13.63;100.00;96818.50;5090759;28;20410;-74
2022/09/16 01:07:13;;;;;;;11.68;6.50;;;14.50;99.90;;;13.60;100.00;96815.63;5090874;28;20436;-74
2022/09/16 01:09:40;;;;;;;10.82;7.03;;;14.50;99.90;;;13.66;100.00;96817.16;5090825;28;20868;-74
2022/09/16 01:12:06;;;;;;;8.07;6.63;;;14.50;99.90;;;13.67;100.00;96819.53;5090922;28;20918;-74
2022/09/16 01:17:32;;;;;;;10.20;7.35;;;14.60;99.90;;;13.68;100.00;96807.81;5090741;28;20439;-74
2022/09/16 01:20:49;;;;;;;10.05;6.55;;;14.60;99.90;;;13.65;100.00;96818.22;5088441;28;20394;-74
2022/09/16 01:23:47;;;;;;;11.00;7.25;;;14.60;99.90;;;13.68;100.00;96809.69;5064267;28;20439;-74
2022/09/16 01:27:04;;;;;;;12.13;7.22;;;14.60;99.90;;;13.76;100.00;96812.50;5090750;28;20404;-74
2022/09/16 01:29:49;;;;;;;11.20;7.13;;;14.60;99.90;;;13.72;100.00;96810.69;5090629;28;20394;-74
2022/09/16 01:32:26;;;;;;;10.93;7.00;;;14.60;99.90;;;13.73;100.00;96814.94;5089278;28;20895;-74
2022/09/16 01:35:01;;;;;;;10.75;7.88;;;14.60;99.90;;;13.68;100.00;96820.34;5090228;28;20405;-74
2022/09/16 01:37:41;;;;;;;11.43;7.47;;;14.60;99.90;;;13.69;100.00;96819.22;5090513;28;20402;-74
2022/09/16 01:40:15;;;;;;;13.13;6.85;;;14.60;99.90;;;13.66;100.00;96823.28;5090472;28;20436;-74
2022/09/16 01:42:52;;;;;;;11.15;7.40;;;14.50;99.90;;;13.64;100.00;96813.97;5090154;28;20390;-74
2022/09/16 01:45:27;;;;;;;9.43;7.63;;;14.50;99.90;;;13.61;100.00;96817.22;5090540;28;20386;-74
2022/09/16 01:48:07;;;;;;;11.05;6.97;;;14.50;99.90;;;13.57;100.00;96819.66;5090492;28;20393;-74
2022/09/16 01:50:40;;;;;;;11.85;7.50;;;14.50;99.90;;;13.54;100.00;96820.19;5090482;28;20433;-74
2022/09/16 01:53:12;;;;;;;11.85;7.47;;;14.50;99.90;;;13.50;100.00;96812.00;5089890;28;20476;-74
2022/09/16 01:55:51;;;;;;;10.00;6.77;;;14.40;99.90;;;13.49;100.00;96807.78;5089192;28;20466;-74
2022/09/16 01:58:26;;;;;;;10.13;6.70;;;14.40;99.90;;;13.47;100.00;96807.25;5090208;28;20414;-74
2022/09/16 02:01:02;;;;;;;12.95;6.28;;;14.40;99.90;;;13.52;100.00;96823.16;5090369;28;20870;-74
2022/09/16 02:03:35;;;;;;;11.48;6.63;;;14.40;99.90;;;13.50;100.00;96809.34;5089920;28;20394;-74
2022/09/16 02:06:06;;;;;;;9.48;5.60;;;14.40;99.90;;;13.44;100.00;96807.84;5090363;28;20433;-74
2022/09/16 02:11:07;;;;;;;12.13;5.70;;;14.30;99.90;;;13.49;100.00;96822.94;5044498;28;20414;-76
2022/09/16 02:13:36;;;;;;;9.77;6.00;;;14.30;99.90;;;13.43;100.00;96813.44;5062853;28;20449;-76
2022/09/16 02:16:09;;;;;;;12.65;6.55;;;14.30;99.90;;;13.43;100.00;96798.28;5039941;28;20403;-76
2022/09/16 02:18:41;;;;;;;14.77;5.50;;;14.30;99.90;;;13.41;100.00;96800.41;5033923;28;20418;-76
2022/09/16 02:21:13;;;;;;;7.77;5.40;;;14.30;99.90;;;13.40;100.00;96792.72;5033968;28;20407;-76
2022/09/16 02:23:44;;;;;;;13.15;5.47;;;14.30;99.90;;;13.42;100.00;96790.56;5033586;28;20400;-76
2022/09/16 02:26:16;;;;;;;9.70;5.25;;;14.30;99.90;;;13.40;100.00;96798.81;5033874;28;20534;-76
2022/09/16 02:28:46;;;;;;;11.23;5.53;;;14.30;99.90;;;13.41;100.00;96794.31;5033839;28;20393;-76
2022/09/16 02:31:14;;;;;;;8.63;4.75;;;14.30;99.90;;;13.37;100.00;96795.97;5033828;28;20399;-76
2022/09/16 02:33:50;;;;;;;8.10;4.75;;;14.30;99.90;;;13.34;100.00;96807.13;5033403;28;20387;-76
2022/09/16 02:36:21;;;;;;;8.07;4.75;;;14.20;99.90;;;13.32;100.00;96806.63;5033803;28;20395;-76
2022/09/16 02:38:52;;;;;;;7.68;4.72;;;14.20;99.90;;;13.36;100.00;96805.78;5033520;28;20509;-76
2022/09/16 02:41:18;;;;;;;6.60;4.93;;;14.20;99.90;;;13.32;100.00;96811.94;5033668;28;20757;-76
2022/09/16 02:43:45;;;;;;;8.38;4.53;;;14.20;99.90;;;13.32;100.00;96809.28;5033104;28;20995;-76
2022/09/16 02:46:21;;;;;;;7.30;4.25;;;14.20;99.90;;;13.31;100.00;96813.00;5033542;28;20427;-76
2022/09/16 02:49:00;;;;;;;8.10;4.65;;;14.20;99.90;;;13.28;100.00;96811.72;5032144;28;20785;-76
2022/09/16 02:51:36;;;;;;;8.98;4.50;;;14.20;99.90;;;13.27;100.00;96812.81;5033485;28;20453;-76
2022/09/16 02:54:09;;;;;;;6.22;4.40;;;14.20;99.90;;;13.28;100.00;96808.28;5032976;28;20730;-76
2022/09/16 02:56:39;;;;;;;7.28;4.45;;;14.20;99.90;;;13.27;100.00;96802.16;5033265;28;20823;-76
2022/09/16 02:59:09;;;;;;;8.68;5.20;;;14.20;99.90;;;13.25;100.00;96817.59;5033052;28;20422;-76
2022/09/16 03:01:40;;;;;;;9.20;4.72;;;14.20;99.90;;;13.22;100.00;96804.88;5033105;28;20407;-76
2022/09/16 03:04:08;;;;;;;5.88;4.25;;;14.10;99.90;;;13.22;100.00;96809.41;5032904;28;20402;-76
2022/09/16 03:06:35;;;;;;;14.63;4.75;;;14.10;99.90;;;13.15;100.00;96802.56;5033380;28;20409;-76
2022/09/16 03:09:03;;;;;;;12.05;4.55;;;14.10;99.90;;;13.15;100.00;96793.81;5033252;28;20768;-76
2022/09/16 03:12:05;;;;;;;6.78;4.60;;;14.00;99.90;;;13.09;100.00;96790.34;5033448;28;20400;-76
2022/09/16 03:15:19;;;;;;;7.65;4.40;;;14.00;99.90;;;13.10;100.00;96793.81;5008288;28;20782;-76
2022/09/16 03:18:02;;;;;;;10.05;4.40;;;14.00;99.90;;;13.04;100.00;96801.03;5018866;28;20919;-76
2022/09/16 03:20:42;;;;;;;7.33;3.90;;;14.00;99.90;;;13.05;100.00;96799.19;5031708;28;20415;-76
2022/09/16 03:23:18;;;;;;;5.90;3.43;;;14.00;99.90;;;13.05;100.00;96799.97;5032537;28;20406;-76
2022/09/16 03:25:56;;;;;;;6.80;3.57;;;13.90;99.90;;;13.07;100.00;96797.03;5032324;28;20798;-77
2022/09/16 03:28:29;;;;;;;7.63;3.85;;;14.00;99.90;;;13.12;100.00;96786.34;5032862;28;20578;-77
2022/09/16 03:31:04;;;;;;;8.10;3.85;;;14.00;99.90;;;13.14;100.00;96790.34;5032762;28;20395;-76
2022/09/16 03:33:38;;;;;;;5.22;3.63;;;14.00;99.90;;;13.16;100.00;96792.69;5032205;28;20403;-76
2022/09/16 03:36:10;;;;;;;6.72;3.40;;;14.10;99.90;;;13.14;100.00;96795.66;5032716;28;20430;-76
2022/09/16 03:38:38;;;;;;;4.55;3.17;;;14.00;99.90;;;13.14;100.00;96792.22;5032102;28;20426;-76
2022/09/16 03:41:06;;;;;;;7.70;3.35;;;14.10;99.90;;;13.13;100.00;96790.63;5032525;28;20468;-76
2022/09/16 03:43:32;;;;;;;7.03;3.72;;;14.00;99.90;;;13.09;100.00;96787.69;5031886;28;20418;-76
2022/09/16 03:45:58;;;;;;;4.97;3.80;;;14.00;99.90;;;13.11;100.00;96790.06;5043417;28;20412;-76
2022/09/16 03:48:24;;;;;;;6.63;3.90;;;14.00;99.90;;;13.09;100.00;96793.00;5050947;28;20409;-76
2022/09/16 03:50:50;;;;;;;4.20;3.38;;;14.00;99.90;;;13.09;100.00;96792.22;5051728;28;20417;-76
2022/09/16 03:53:18;;;;;;;8.63;4.00;;;14.00;99.90;;;13.04;100.00;96789.63;5048695;28;20446;-76
2022/09/16 03:55:44;;;;;;;5.90;3.60;;;14.00;99.90;;;13.07;100.00;96781.09;5051176;28;20398;-77
2022/09/16 03:58:10;;;;;;;7.23;3.67;;;14.00;99.90;;;13.06;100.00;96800.75;5051290;28;20425;-77
2022/09/16 04:00:36;;;;;;;6.60;3.88;;;14.00;99.90;;;13.04;100.00;96790.41;5051086;28;20405;-76
2022/09/16 04:03:02;;;;;;;6.28;3.50;;;14.00;99.90;;;13.01;100.00;96783.00;5049057;28;20849;-76
2022/09/16 04:05:28;;;;;;;5.90;3.30;;;13.90;99.90;;;13.03;100.00;96783.50;5051377;28;20406;-76
2022/09/16 04:07:54;;;;;;;11.48;3.53;;;13.90;99.90;;;13.01;100.00;96787.50;5051075;28;20448;-76
2022/09/16 04:10:21;;;;;;;6.70;3.63;;;13.90;99.90;;;13.00;100.00;96784.09;5051635;28;20501;-76
2022/09/16 04:12:47;;;;;;;8.20;3.73;;;13.90;99.90;;;13.00;100.00;96783.28;5051291;28;20531;-76
2022/09/16 04:15:13;;;;;;;6.80;3.83;;;13.90;99.90;;;13.00;100.00;96778.78;5051755;28;20918;-75
2022/09/16 04:17:39;;;;;;;5.78;3.13;;;13.90;99.90;;;12.99;100.00;96776.38;5051686;28;20485;-76
2022/09/16 04:20:07;;;;;;;7.18;3.72;;;13.90;99.90;;;13.00;100.00;96772.66;5051726;28;20429;-76
2022/09/16 04:22:33;;;;;;;5.72;3.47;;;13.90;99.90;;;13.00;100.00;96770.81;5049900;28;20822;-76
2022/09/16 04:24:59;;;;;;;7.88;3.80;;;13.90;99.90;;;13.00;100.00;96772.66;5050991;28;20488;-75
2022/09/16 04:27:26;;;;;;;6.45;3.67;;;13.90;99.90;;;12.97;100.00;96766.03;5051487;28;20412;-75
2022/09/16 04:29:52;;;;;;;5.85;3.70;;;13.90;99.90;;;12.94;100.00;96755.97;5049503;28;20459;-75
2022/09/16 04:32:18;;;;;;;7.50;3.50;;;13.90;99.90;;;12.96;100.00;96761.00;5042911;28;20430;-77
2022/09/16 04:34:44;;;;;;;7.88;3.78;;;13.80;99.90;;;12.90;100.00;96757.59;5050861;28;20425;-77
2022/09/16 04:37:10;;;;;;;4.25;3.45;;;13.90;99.90;;;12.94;100.00;96761.28;5051285;28;20452;-76
2022/09/16 04:39:36;;;;;;;8.67;3.70;;;13.80;99.90;;;12.93;100.00;96759.69;5050561;28;20900;-76
2022/09/16 04:42:04;;;;;;;8.10;3.65;;;13.80;99.90;;;12.94;100.00;96768.44;5050426;28;20409;-76
2022/09/16 04:44:31;;;;;;;8.55;3.80;;;13.80;99.90;;;12.93;100.00;96766.91;5046231;28;20424;-75
2022/09/16 04:46:57;;;;;;;6.22;3.63;;;13.90;99.90;;;12.92;100.00;96760.78;5040084;28;20425;-75
2022/09/16 04:49:23;;;;;;;6.30;3.75;;;13.80;99.90;;;12.92;100.00;96755.47;5045184;28;20488;-75
2022/09/16 04:51:51;;;;;;;6.40;4.00;;;13.90;99.90;;;12.92;100.00;96762.66;5046586;28;20955;-75
2022/09/16 04:54:17;;;;;;;5.97;3.80;;;13.90;99.90;;;12.92;100.00;96771.41;5030727;28;20919;-76
2022/09/16 04:56:42;;;;;;;6.82;4.28;;;13.90;99.90;;;12.91;100.00;96766.38;5029737;28;20491;-75
2022/09/16 04:59:09;;;;;;;12.03;4.63;;;13.80;99.90;;;12.87;100.00;96763.47;5030855;28;20863;-76
2022/09/16 05:01:38;;;;;;;5.83;3.60;;;13.80;99.90;;;12.89;100.00;96765.84;5044920;28;20463;-75
2022/09/16 05:04:06;;;;;;;6.40;4.10;;;13.80;99.90;;;12.90;100.00;96772.75;5044644;28;20397;-76
2022/09/16 05:06:35;;;;;;;5.95;4.18;;;13.80;99.90;;;12.88;100.00;96780.19;5045411;28;20449;-75
2022/09/16 05:09:01;;;;;;;6.25;4.13;;;13.80;99.90;;;12.91;100.00;96779.66;5044909;28;20490;-76
2022/09/16 05:11:32;;;;;;;6.45;4.40;;;13.80;99.90;;;12.90;100.00;96784.19;5040314;28;20422;-76
2022/09/16 05:13:59;;;;;;;6.63;4.32;;;13.80;99.90;;;12.89;100.00;96784.44;5036573;28;20404;-76
2022/09/16 05:16:25;;;;;;;7.25;4.50;;;13.80;99.90;;;12.83;100.00;96781.06;5031508;28;20395;-76
2022/09/16 05:18:54;;;;;;;11.95;4.90;;;13.70;99.90;;;12.82;100.00;96778.66;5037944;28;20467;-77
2022/09/16 05:21:23;;;;;;;10.77;4.90;;;13.70;99.90;;;12.85;100.00;96773.59;5046317;28;20704;-80
2022/09/16 05:23:49;;;;;;;11.25;5.65;;;13.70;99.90;;;12.82;100.00;96770.69;5042157;28;20412;-76
2022/09/16 05:26:18;;;;;;;11.45;6.00;;;13.70;99.90;;;12.80;100.00;96779.75;5044267;28;20895;-75
2022/09/16 05:28:43;;;;;;;8.90;5.63;;;13.80;99.90;;;12.79;100.00;96786.13;5030553;28;20411;-75
2022/09/16 05:31:12;;;;;;;10.48;5.90;;;13.70;99.90;;;12.76;100.00;96781.38;5045555;28;20416;-76
2022/09/16 05:33:39;;;;;;;10.30;6.30;;;13.70;99.90;;;12.76;100.00;96784.03;5034967;28;20398;-76
2022/09/16 05:36:09;;;;;;;11.45;6.47;;;13.70;99.90;;;12.73;100.00;96783.78;5041963;28;20411;-76
2022/09/16 05:38:35;;;;;;;11.65;6.55;;;13.70;99.90;;;12.72;100.00;96771.56;5039025;28;20460;-76
2022/09/16 05:41:02;;;;;;;13.95;7.03;;;13.70;99.90;;;12.71;100.00;96781.41;5041777;28;20474;-76
2022/09/16 05:43:29;;;;;;;15.73;7.10;;;13.60;99.90;;;12.68;100.00;96781.19;5033632;28;20412;-76
2022/09/16 05:45:56;;;;;;;13.10;7.13;;;13.60;99.90;;;12.67;100.00;96784.91;5044681;28;20410;-76
2022/09/16 05:48:23;;;;;;;12.02;7.43;;;13.60;99.90;;;12.64;100.00;96778.28;5042202;28;20417;-76
2022/09/16 05:50:52;;;;;;;15.20;7.55;;;13.60;99.90;;;12.67;100.00;96787.56;5045936;28;20736;-76
2022/09/16 05:53:20;;;;;;;11.68;7.45;;;13.60;99.90;;;12.64;100.00;96788.09;5048845;28;20407;-75
2022/09/16 05:55:55;;;;;;;16.95;8.55;;;13.60;99.90;;;12.60;100.00;96785.22;5039449;28;20636;-76
2022/09/16 05:58:21;;;;;;;15.05;8.95;;;13.60;99.90;;;12.56;100.00;96786.84;5044402;28;20427;-74
2022/09/16 06:00:47;;;;;;;16.30;8.63;;;13.50;99.90;;;12.54;100.00;96785.56;5040251;28;20484;-77
2022/09/16 06:03:13;;;;;;;13.98;8.98;;;13.50;99.90;;;12.55;100.00;96787.16;5046933;28;20400;-76
2022/09/16 06:05:39;;;;;;;17.80;9.90;;;13.50;99.90;;;12.55;100.00;96787.16;5062881;28;20445;-74
2022/09/16 06:08:04;;;;;;;20.85;9.90;;;13.50;99.90;;;12.54;100.00;96794.31;5031599;28;20782;-74
2022/09/16 06:10:37;;;;;;;24.00;11.75;;;13.50;99.90;;;12.55;100.00;96795.13;5041415;28;20411;-74
2022/09/16 06:13:03;;;;;;;22.40;11.15;;;13.50;99.90;;;12.51;100.00;96794.84;5038802;28;20451;-79
2022/09/16 06:15:30;;;;;;;19.70;11.38;;;13.50;99.90;;;12.47;100.00;96790.38;5035776;28;20876;-80
2022/09/16 06:17:57;;;;;;;26.63;12.25;;;13.40;99.90;;;12.46;100.00;96788.81;5045324;28;20408;-79
2022/09/16 06:20:23;;;;;;;23.60;11.95;;;13.40;99.90;;;12.46;100.00;96792.25;5034501;28;20467;-78
2022/09/16 06:22:49;;;;;;;25.27;12.70;;;13.40;99.90;;;12.48;100.00;96791.97;5041133;28;20403;-77
2022/09/16 06:25:15;;;;;;;31.55;13.13;;;13.50;99.90;;;12.46;100.00;96794.91;5044620;28;20417;-76
2022/09/16 06:27:42;;;;;;;32.63;14.20;;;13.40;99.90;;;12.53;100.00;96798.03;5048481;28;20771;-77
2022/09/16 06:30:10;;;;;;;36.53;15.13;;;13.40;99.90;;;12.49;100.00;96802.28;5049833;28;20404;-74
2022/09/16 06:32:36;;;;;;;27.30;13.45;;;13.40;99.90;;;12.48;100.00;96806.03;5049208;28;20894;-75
2022/09/16 06:35:03;;;;;;;33.03;15.23;;;13.40;99.90;;;12.50;100.00;96803.88;5045385;28;20412;-76
2022/09/16 06:37:29;;;;;;;42.77;16.30;;;13.50;99.90;;;12.48;100.00;96797.28;5048951;28;20880;-75
2022/09/16 06:39:55;;;;;;;28.33;14.40;;;13.40;99.90;;;12.50;100.00;96805.75;5049139;28;20417;-75
2022/09/16 06:42:21;;;;;;;39.10;17.40;;;13.40;99.90;;;12.48;100.00;96803.38;5045806;28;20771;-77
2022/09/16 06:44:48;;;;;;;48.85;18.42;;;13.50;99.90;;;12.50;100.00;96798.56;5044042;28;20474;-76
2022/09/16 06:47:14;;;;;;;47.38;17.45;;;13.50;99.90;;;12.46;100.00;96805.53;5034254;28;20818;-76
2022/09/16 06:49:40;;;;;;;41.17;17.30;;;13.40;99.90;;;12.42;100.00;96801.81;5046073;28;20443;-79
2022/09/16 06:52:08;;;;;;;35.50;16.20;;;13.40;99.90;;;12.44;100.00;96798.91;5043331;28;20476;-75
2022/09/16 06:54:34;;;;;;;47.83;19.25;;;13.40;99.90;;;12.49;100.00;96798.84;5040344;28;20439;-75
2022/09/16 06:57:00;;;;;;;40.30;16.08;;;13.40;99.90;;;12.48;100.00;96795.41;5043861;28;20954;-74
2022/09/16 06:59:26;;;;;;;42.33;17.27;;;13.40;99.90;;;12.45;100.00;96795.97;5040686;28;20419;-76
2022/09/16 07:01:53;;;;;;;47.42;17.77;;;13.40;99.90;;;12.43;100.00;96795.44;5049873;28;20463;-76
2022/09/16 07:04:19;;;;;;;51.40;19.65;;;13.40;99.90;;;12.46;100.00;96797.56;5050310;28;20508;-79
2022/09/16 07:06:45;;;;;;;54.50;19.80;;;13.40;99.90;;;12.45;100.00;96808.44;5043147;28;20488;-77
2022/09/16 07:09:11;;;;;;;60.10;21.20;;;13.40;99.90;;;12.44;100.00;96810.31;5051621;28;20782;-76
2022/09/16 07:11:39;;;;;;;53.90;19.07;;;13.40;99.90;;;12.46;100.00;96810.84;5051380;28;20422;-76
2022/09/16 07:14:06;;;;;;;65.03;21.65;;;13.40;99.90;;;12.47;100.00;96811.63;5050930;28;20417;-77
2022/09/16 07:16:34;;;;;;;69.28;22.67;;;13.40;99.90;;;12.43;100.00;96818.53;5042559;28;20405;-76
2022/09/16 07:19:01;;;;;;;68.22;21.73;;;13.40;99.90;;;12.40;100.00;96814.59;5043256;28;20419;-77
2022/09/16 07:21:29;;;;;;;65.30;22.77;;;13.30;99.90;;;12.43;100.00;96819.34;5046239;28;20420;-75
2022/09/16 07:23:59;;;;;;;71.93;21.25;;;13.40;99.90;;;12.36;100.00;96827.63;5049966;28;20818;-77
2022/09/16 07:26:28;;;;;;;67.90;21.50;;;13.30;99.90;;;12.35;100.00;96833.97;5035185;28;20966;-77
2022/09/16 07:28:57;;;;;;;68.53;20.60;;;13.30;99.90;;;12.31;100.00;96832.97;5052028;28;20509;-82
2022/09/16 07:31:26;;;;;;;69.32;20.75;;;13.30;99.90;;;12.28;100.00;96825.53;5051795;28;20409;-78
2022/09/16 07:33:55;;;;;;;74.43;21.27;;;13.20;99.90;;;12.27;100.00;96810.69;5051830;28;20459;-78
2022/09/16 07:36:25;;;;;;;75.88;21.98;;;13.20;99.90;;;12.31;100.00;96814.38;5049796;28;20414;-77
2022/09/16 07:38:53;;;;;;;86.00;23.23;;;13.30;99.90;;;12.34;100.00;96820.97;5043172;28;20417;-78
2022/09/16 07:41:23;;;;;;;88.45;24.65;;;13.30;99.90;;;12.32;100.00;96826.59;5045096;28;20423;-80
2022/09/16 07:43:50;;;;;;;97.03;25.27;;;13.30;99.90;;;12.29;100.00;96829.78;5046566;28;20535;-79
2022/09/16 07:46:18;;;;;;;82.73;24.00;;;13.30;99.90;;;12.29;100.00;96827.13;5050495;28;20576;-77
2022/09/16 07:48:46;;;;;;;77.00;23.17;;;13.20;99.90;;;12.31;100.00;96824.22;5049575;28;20592;-76
2022/09/16 07:51:16;;;;;;;101.03;26.17;;;13.30;99.90;;;12.35;100.00;96826.03;5039438;28;20420;-80
2022/09/16 07:53:44;;;;;;;78.07;24.23;;;13.30;99.90;;;12.38;100.00;96830.00;5046718;28;20768;-82
2022/09/16 07:56:14;;;;;;;65.40;22.40;;;13.30;99.90;;;12.33;100.00;96828.16;5045756;28;20417;-78
2022/09/16 07:58:40;;;;;;;48.13;19.52;;;13.30;99.90;;;12.34;100.00;96832.41;5044175;28;20431;-79
2022/09/16 08:01:08;;;;;;;86.13;25.85;;;13.30;99.90;;;12.37;100.00;96844.34;5046390;28;20413;-79
2022/09/16 08:03:35;;;;;;;89.17;27.50;;;13.30;99.90;;;12.38;100.00;96841.41;5050722;28;20406;-78
2022/09/16 08:06:04;;;;;;;80.70;25.85;;;13.30;99.90;;;12.37;100.00;96839.03;5051041;28;20415;-78
2022/09/16 08:08:30;;;;;;;92.47;27.73;;;13.30;99.90;;;12.42;100.00;96836.31;5051533;28;21247;-79
2022/09/16 08:10:59;;;;;;;85.20;27.00;;;13.30;99.90;;;12.48;100.00;96827.25;5080469;22;20423;-84
2022/09/16 08:13:27;;;;;;;84.75;24.90;;;13.40;99.90;;;12.53;100.00;96835.19;5060577;28;20400;-80
2022/09/16 08:15:55;;;;;;;79.80;24.23;;;13.40;99.90;;;12.59;100.00;96830.66;5059829;28;20404;-79
2022/09/16 08:18:21;;;;;;;85.20;28.60;;;13.50;99.90;;;12.64;100.00;96843.88;5061266;28;20415;-80
2022/09/16 08:20:47;;;;;;;75.63;25.02;;;13.50;99.90;;;12.65;100.00;96837.50;5079194;28;20407;-78
2022/09/16 08:23:13;;;;;;;94.40;26.95;;;13.50;99.90;;;12.64;100.00;96833.25;5064949;28;20431;-88
2022/09/16 08:25:40;;;;;;;80.53;26.48;;;13.50;99.90;;;12.67;100.00;96840.66;5074321;28;20417;-82
2022/09/16 08:28:12;;;;;;;87.35;27.85;;;13.60;99.90;;;12.68;100.00;96844.91;5068632;28;20399;-80
2022/09/16 08:30:37;;;;;;;95.20;26.95;;;13.60;99.90;;;12.72;100.00;96846.72;5066571;28;20495;-82
2022/09/16 08:33:03;;;;;;;82.63;26.38;;;13.60;99.90;;;12.76;100.00;96844.31;5053756;28;20412;-80
2022/09/16 08:35:29;;;;;;;101.40;27.70;;;13.60;99.90;;;12.81;100.00;96854.91;5059856;28;20415;-78
2022/09/16 08:37:56;;;;;;;91.57;27.83;;;13.70;99.90;;;12.82;100.00;96855.69;5062252;28;20824;-81
2022/09/16 08:40:23;;;;;;;80.65;26.23;;;13.70;99.90;;;12.78;100.00;96866.06;5070743;28;20440;-82
2022/09/16 08:43:01;;;;;;;70.85;25.38;;;13.60;99.90;;;12.75;100.00;96858.66;5070190;28;20408;-86
2022/09/16 08:45:40;;;;;;;97.60;29.83;;;13.60;99.90;;;12.73;100.00;96858.16;5063527;28;20410;-86
2022/09/16 08:48:29;;;;;;;82.20;26.20;;;13.60;99.90;;;12.70;100.00;96869.34;5053921;28;20678;-85
2022/09/16 08:50:57;;;;;;;86.97;27.65;;;13.60;99.90;;;12.71;100.00;96868.25;5064270;28;20494;-84
2022/09/16 08:53:34;;;;;;;91.90;27.30;;;13.60;99.90;;;12.71;100.00;96871.69;5068729;28;20418;-84
2022/09/16 08:56:05;;;;;;;64.87;23.70;;;13.60;99.90;;;12.76;100.00;96878.84;5056899;28;20408;-87
2022/09/16 08:58:38;;;;;;;74.03;24.57;;;13.60;99.90;;;12.78;100.00;96877.50;5063765;28;20496;-85
2022/09/16 09:01:28;;;;;;;66.90;23.48;;;13.70;99.90;;;12.82;100.00;96871.63;5070666;28;20404;-86
2022/09/16 09:03:55;;;;;;;57.65;21.50;;;13.70;99.90;;;12.91;100.00;96869.97;5069934;28;20500;-87
2022/09/16 09:06:49;;;;;;;55.50;19.95;;;13.70;99.90;;;12.97;100.00;96864.34;5070602;28;20939;-88
2022/09/16 09:09:39;;;;;;;54.28;20.85;;;13.80;99.90;;;12.91;100.00;96862.81;5052946;28;20401;-83
2022/09/16 09:12:13;;;;;;;53.42;20.50;;;13.80;99.90;;;12.86;100.00;96860.16;5063792;28;20896;-78
2022/09/16 09:14:59;;;;;;;36.13;16.65;;;13.70;99.90;;;12.87;100.00;96863.63;5071758;28;20427;-81
2022/09/16 09:17:41;;;;;;;44.93;18.70;;;13.70;99.90;;;12.94;100.00;96864.09;5060944;28;20473;-80
2022/09/16 09:20:21;;;;;;;40.70;17.43;;;13.80;99.90;;;12.78;100.00;96860.75;5063915;28;20413;-82
2022/09/16 09:23:12;;;;;;;36.00;17.13;;;13.60;99.90;;;12.76;100.00;96858.41;5049317;28;20496;-80
2022/09/16 09:25:46;;;;;;;42.08;17.70;;;13.60;99.90;;;12.75;100.00;96862.13;5062071;28;20452;-81
2022/09/16 09:28:43;;;;;;;43.60;17.95;;;13.60;99.90;;;12.82;100.00;96853.84;5055932;28;20453;-89
2022/09/16 09:31:21;;;;;;;37.90;16.05;;;13.70;99.90;;;12.56;100.00;96855.06;5070194;28;20453;-81
2022/09/16 09:33:54;;;;;;;40.58;16.45;;;13.40;99.90;;;12.42;100.00;96849.59;5053114;28;20481;-85
2022/09/16 09:36:44;;;;;;;40.58;16.00;;;13.30;99.90;;;12.46;100.00;96855.97;5058756;28;20529;-84
2022/09/16 09:39:44;;;;;;;42.08;18.17;;;13.30;99.90;;;12.67;100.00;96857.41;5054565;28;20417;-85
2022/09/16 09:42:15;;;;;;;38.55;16.52;;;13.50;99.90;;;12.53;100.00;96858.31;5048190;28;20898;-83
2022/09/16 09:44:51;;;;;;;39.00;18.00;;;13.30;99.90;;;12.56;100.00;96863.03;5064251;28;20905;-80
2022/09/16 09:47:24;;;;;;;42.55;18.08;;;13.40;99.90;;;12.64;100.00;96849.97;5056453;28;20468;-91
2022/09/16 09:49:56;;;;;;;49.80;19.17;;;13.50;99.90;;;12.76;100.00;96855.75;5067787;28;20966;-83
2022/09/16 09:52:30;;;;;;;38.50;16.90;;;13.60;99.90;;;12.82;100.00;96851.19;5063743;28;20409;-82
2022/09/16 09:55:13;;;;;;;37.58;16.40;;;13.60;99.90;;;12.94;100.00;96853.47;5059811;28;20409;-84
2022/09/16 09:57:46;;;;;;;44.20;17.97;;;13.70;99.90;;;12.90;100.00;96853.25;5060236;28;20408;-83
2022/09/16 10:00:16;;;;;;;49.78;18.52;;;13.70;99.90;;;12.91;100.00;96854.81;5069826;28;20477;-91
2022/09/16 10:02:44;;;;;;;32.40;15.33;;;13.70;99.90;;;12.92;100.00;96863.59;5069601;28;20479;-81
2022/09/16 10:05:21;;;;;;;45.95;17.17;;;13.70;99.90;;;12.89;100.00;96862.28;5067896;28;20411;-77
2022/09/16 10:07:49;;;;;;;48.67;18.25;;;13.70;99.90;;;12.93;100.00;96862.53;5069525;28;20503;-79
2022/09/16 10:10:20;;;;;;;37.75;16.50;;;13.80;99.90;;;12.93;100.00;96865.94;5062468;28;20404;-82
2022/09/16 10:12:46;;;;;;;45.00;18.92;;;13.80;99.90;;;12.89;100.00;96861.47;5051219;28;20496;-83
2022/09/16 10:15:22;;;;;;;38.25;16.23;;;13.70;99.90;;;12.87;100.00;96863.63;5054297;28;20416;-80
2022/09/16 10:17:50;;;;;;;42.13;17.58;;;13.70;99.90;;;12.82;100.00;96859.16;5057018;28;20433;-81
2022/09/16 10:20:27;;;;;;;40.58;16.58;;;13.70;99.90;;;12.79;100.00;96868.44;5057342;28;20463;-77
2022/09/16 10:23:01;;;;;;;39.13;17.65;;;13.60;99.90;;;12.81;100.00;96865.53;5058881;28;20428;-78
2022/09/16 10:25:30;;;;;;;36.58;16.60;;;13.70;99.90;;;12.78;100.00;96856.25;5069595;28;20408;-76